Time;durP1;ratioP1;P1;durP2;ratioP2;P2;SDS_P1;SDS_P2;PMS_P1;PMS_P2;Temp;Humidity;BMP_temperature;BMP_pressure;BME280_temperature;BME280_humidity;BME280_pressure;Samples;Min_cycle;Max_cycle;Signal;HPM_P1;HPM_P2
2022/12/14 00:02:05;;;;;;;32.40;22.00;;;3.30;53.30;;;;;;5019670;28;20045;-74
2022/12/14 00:04:50;;;;;;;34.72;23.27;;;3.20;53.20;;;;;;5017727;28;20084;-75
2022/12/14 00:07:34;;;;;;;33.00;22.50;;;3.30;53.40;;;;;;5012945;28;20040;-74
2022/12/14 00:10:19;;;;;;;29.88;20.45;;;3.20;53.20;;;;;;5022681;28;20516;-74
2022/12/14 00:13:04;;;;;;;36.28;23.75;;;3.20;53.20;;;;;;5008015;28;20151;-74
2022/12/14 00:15:48;;;;;;;34.58;23.00;;;3.20;53.20;;;;;;5017599;28;20403;-75
2022/12/14 00:18:33;;;;;;;30.40;22.38;;;3.20;53.30;;;;;;5013479;28;20074;-74
2022/12/14 00:21:18;;;;;;;35.83;24.73;;;3.20;53.20;;;;;;5022034;28;20044;-75
2022/12/14 00:24:03;;;;;;;33.90;22.83;;;3.20;53.30;;;;;;5011713;28;20036;-74
2022/12/14 00:26:47;;;;;;;41.03;24.55;;;3.20;53.30;;;;;;5007769;28;20060;-74
2022/12/14 00:29:31;;;;;;;32.75;22.83;;;3.20;53.30;;;;;;5004733;28;20404;-74
2022/12/14 00:32:16;;;;;;;34.25;22.00;;;3.20;53.30;;;;;;5014998;28;20160;-74
2022/12/14 00:35:01;;;;;;;37.80;24.50;;;3.20;53.30;;;;;;5011636;28;20319;-74
2022/12/14 00:37:45;;;;;;;34.85;23.65;;;3.20;53.30;;;;;;5023646;28;20575;-74
2022/12/14 00:40:30;;;;;;;37.30;25.27;;;3.20;53.30;;;;;;5022370;28;20048;-74
2022/12/14 00:43:14;;;;;;;36.63;23.20;;;3.20;53.40;;;;;;5023579;28;20086;-74
2022/12/14 00:45:59;;;;;;;38.15;24.92;;;3.20;53.40;;;;;;5022894;28;20574;-75
2022/12/14 00:48:44;;;;;;;36.70;24.60;;;3.10;53.20;;;;;;5019769;28;20052;-74
2022/12/14 00:51:28;;;;;;;37.60;23.95;;;3.20;53.40;;;;;;5012955;28;20441;-74
2022/12/14 00:54:13;;;;;;;34.95;24.60;;;3.10;53.20;;;;;;5005986;28;20048;-75
2022/12/14 00:56:57;;;;;;;37.22;25.08;;;3.10;53.30;;;;;;5020697;28;20098;-75
2022/12/14 00:59:42;;;;;;;39.08;25.55;;;3.10;53.30;;;;;;5017688;28;20543;-75
2022/12/14 01:02:27;;;;;;;36.17;23.85;;;3.10;53.30;;;;;;5008836;28;20248;-75
2022/12/14 01:05:11;;;;;;;36.08;24.00;;;3.10;53.30;;;;;;5007104;28;20095;-75
2022/12/14 01:07:56;;;;;;;36.92;24.83;;;3.10;53.40;;;;;;5014563;28;20053;-75
2022/12/14 01:10:40;;;;;;;40.15;26.00;;;3.10;53.40;;;;;;5015350;28;20395;-74
2022/12/14 01:13:24;;;;;;;37.63;24.33;;;3.10;53.40;;;;;;4996327;28;20501;-74
2022/12/14 01:16:11;;;;;;;38.35;25.80;;;3.10;53.50;;;;;;5025391;28;20515;-74
2022/12/14 01:18:57;;;;;;;35.67;25.02;;;3.00;53.30;;;;;;5017325;28;20393;-74
2022/12/14 01:21:41;;;;;;;35.40;23.67;;;3.10;53.50;;;;;;5026028;28;20072;-74
2022/12/14 01:24:26;;;;;;;39.03;24.73;;;3.00;53.40;;;;;;5019861;28;20321;-74
2022/12/14 01:27:12;;;;;;;43.40;26.17;;;3.10;53.60;;;;;;5026076;28;20060;-74
2022/12/14 01:29:56;;;;;;;40.65;24.98;;;3.00;53.40;;;;;;5008637;28;20040;-74
2022/12/14 01:32:41;;;;;;;42.20;26.13;;;3.10;53.60;;;;;;5027661;28;20207;-75
2022/12/14 01:35:25;;;;;;;39.05;27.20;;;3.00;53.40;;;;;;5011306;28;20045;-74
2022/12/14 01:38:10;;;;;;;38.28;25.65;;;3.00;53.40;;;;;;5013642;28;20080;-75
2022/12/14 01:40:58;;;;;;;39.58;27.13;;;3.00;53.50;;;;;;5023019;28;20063;-75
2022/12/14 01:43:47;;;;;;;39.38;26.55;;;3.00;53.50;;;;;;5024164;28;20048;-75
2022/12/14 01:46:46;;;;;;;40.80;26.05;;;3.00;53.50;;;;;;5025383;28;20115;-75
2022/12/14 01:49:41;;;;;;;41.47;26.48;;;3.00;53.50;;;;;;5009497;28;20039;-76
2022/12/14 01:52:48;;;;;;;38.50;26.00;;;3.00;53.60;;;;;;5009001;28;20410;-74
2022/12/14 01:55:42;;;;;;;34.58;23.60;;;3.00;53.60;;;;;;5022932;28;20516;-75
2022/12/14 01:58:27;;;;;;;36.88;24.80;;;3.00;53.60;;;;;;5003966;28;20429;-75
2022/12/14 02:01:12;;;;;;;40.35;26.63;;;3.00;53.70;;;;;;5025073;28;20570;-74
2022/12/14 02:03:57;;;;;;;39.75;26.90;;;2.90;53.50;;;;;;5012240;28;20144;-74
2022/12/14 02:06:43;;;;;;;35.58;25.15;;;2.90;53.50;;;;;;5010194;28;20053;-74
2022/12/14 02:09:32;;;;;;;39.60;26.40;;;2.90;53.50;;;;;;5018218;28;20559;-74
2022/12/14 02:12:24;;;;;;;36.75;24.90;;;2.90;53.50;;;;;;5012946;28;20533;-74
2022/12/14 02:15:10;;;;;;;38.05;26.85;;;2.90;53.60;;;;;;5023119;28;20048;-74
2022/12/14 02:17:56;;;;;;;39.45;25.95;;;2.90;53.60;;;;;;5012853;28;20052;-75
2022/12/14 02:21:20;;;;;;;37.92;25.92;;;2.80;53.50;;;;;;5025081;28;20049;-75
2022/12/14 02:24:07;;;;;;;38.92;26.77;;;2.90;53.70;;;;;;5013327;28;20029;-74
2022/12/14 02:27:04;;;;;;;37.75;25.20;;;2.80;53.50;;;;;;5001262;28;20144;-74
2022/12/14 02:29:57;;;;;;;40.30;26.83;;;2.80;53.60;;;;;;5010587;28;20259;-75
2022/12/14 02:33:02;;;;;;;37.67;26.20;;;2.80;53.60;;;;;;5008732;28;20035;-74
2022/12/14 02:36:06;;;;;;;38.17;25.15;;;2.80;53.60;;;;;;5009721;28;20091;-75
2022/12/14 02:39:10;;;;;;;38.33;26.80;;;2.80;53.60;;;;;;5028855;28;20519;-75
2022/12/14 02:42:12;;;;;;;38.35;25.20;;;2.80;53.60;;;;;;5025705;28;20100;-75
2022/12/14 02:45:19;;;;;;;39.85;25.10;;;2.80;53.70;;;;;;4999379;28;20053;-74
2022/12/14 02:48:16;;;;;;;40.30;24.02;;;2.70;53.50;;;;;;5024951;28;20095;-74
2022/12/14 02:51:23;;;;;;;38.15;25.13;;;2.70;53.50;;;;;;5032790;28;20087;-74
2022/12/14 02:54:31;;;;;;;37.80;23.48;;;2.70;53.50;;;;;;5027160;28;20103;-74
2022/12/14 02:57:22;;;;;;;40.50;26.42;;;2.70;53.60;;;;;;5026759;28;20091;-74
2022/12/14 03:00:07;;;;;;;38.65;24.02;;;2.70;53.60;;;;;;5027888;28;20059;-74
2022/12/14 03:02:52;;;;;;;39.08;25.30;;;2.70;53.60;;;;;;5011193;28;20039;-75
2022/12/14 03:05:36;;;;;;;37.17;25.42;;;2.70;53.70;;;;;;5007846;28;20065;-74
2022/12/14 03:08:22;;;;;;;36.58;25.05;;;2.70;53.70;;;;;;5027788;28;20083;-75
2022/12/14 03:11:09;;;;;;;33.45;23.17;;;2.60;53.60;;;;;;5027461;28;20092;-75
2022/12/14 03:14:05;;;;;;;39.00;25.55;;;2.60;53.60;;;;;;5015215;28;20044;-74
2022/12/14 03:16:52;;;;;;;37.22;24.55;;;2.60;53.60;;;;;;5025379;28;20469;-75
2022/12/14 03:19:40;;;;;;;35.92;24.45;;;2.60;53.60;;;;;;5018076;28;20057;-75
2022/12/14 03:22:38;;;;;;;36.78;23.92;;;2.60;53.60;;;;;;5027359;28;20033;-75
2022/12/14 03:25:33;;;;;;;37.63;25.05;;;2.60;53.70;;;;;;5010010;28;20056;-75
2022/12/14 03:28:20;;;;;;;38.75;25.13;;;2.50;53.50;;;;;;5006179;28;20036;-74
2022/12/14 03:31:10;;;;;;;36.83;24.38;;;2.50;53.60;;;;;;5023104;28;20535;-75
2022/12/14 03:33:57;;;;;;;35.53;25.13;;;2.50;53.50;;;;;;5023821;28;20056;-74
2022/12/14 03:36:54;;;;;;;37.65;23.73;;;2.50;53.60;;;;;;5005334;28;20083;-75
2022/12/14 03:39:42;;;;;;;37.05;24.80;;;2.50;53.60;;;;;;5027223;28;20092;-75
2022/12/14 03:42:37;;;;;;;39.83;25.55;;;2.50;53.60;;;;;;5016713;28;20087;-75
2022/12/14 03:45:57;;;;;;;38.97;26.60;;;2.50;53.60;;;;;;5027169;28;20080;-75
2022/12/14 03:48:55;;;;;;;38.00;25.48;;;2.50;53.70;;;;;;5018631;28;20512;-74
2022/12/14 03:52:27;;;;;;;42.00;26.05;;;2.50;53.70;;;;;;5027353;28;20048;-74
2022/12/14 03:55:29;;;;;;;38.92;25.35;;;2.40;53.50;;;;;;4966233;28;20041;-75
2022/12/14 03:58:32;;;;;;;39.83;25.40;;;2.40;53.50;;;;;;5015003;28;20551;-74
2022/12/14 04:01:37;;;;;;;39.45;25.23;;;2.40;53.50;;;;;;5015926;28;20543;-73
2022/12/14 04:04:33;;;;;;;38.10;25.02;;;2.40;53.50;;;;;;5016346;28;20076;-74
2022/12/14 04:07:39;;;;;;;40.35;24.90;;;2.40;53.50;;;;;;5000884;28;20071;-74
2022/12/14 04:20:22;;;;;;;41.13;24.10;;;2.40;53.60;;;;;;5024841;28;20036;-75
2022/12/14 04:26:31;;;;;;;38.97;24.80;;;2.30;53.50;;;;;;5023980;28;20052;-75
2022/12/14 04:32:34;;;;;;;42.08;24.85;;;2.30;53.60;;;;;;5026112;28;20075;-75
2022/12/14 04:35:25;;;;;;;42.70;26.02;;;2.30;53.60;;;;;;5033036;28;20083;-75
2022/12/14 04:38:16;;;;;;;39.70;26.65;;;2.30;53.60;;;;;;5002091;28;20432;-75
2022/12/14 04:41:05;;;;;;;40.50;25.77;;;2.30;53.70;;;;;;5013527;28;20082;-75
2022/12/14 04:43:54;;;;;;;45.17;26.83;;;2.20;53.50;;;;;;5017001;28;20129;-74
2022/12/14 04:46:39;;;;;;;39.60;25.77;;;2.20;53.50;;;;;;5026074;28;20064;-74
2022/12/14 04:49:45;;;;;;;38.42;25.80;;;2.20;53.50;;;;;;5014171;28;20041;-74
2022/12/14 04:52:36;;;;;;;44.28;26.35;;;2.20;53.60;;;;;;5014496;28;20076;-74
2022/12/14 04:55:35;;;;;;;41.60;26.77;;;2.20;53.50;;;;;;5023462;28;20047;-74
2022/12/14 04:58:27;;;;;;;42.40;26.38;;;2.20;53.60;;;;;;5024583;28;20421;-75
2022/12/14 05:01:30;;;;;;;41.20;25.45;;;2.20;53.60;;;;;;5018636;28;20176;-74
2022/12/14 05:04:33;;;;;;;39.90;25.25;;;2.20;53.60;;;;;;5015757;28;20036;-75
2022/12/14 05:07:29;;;;;;;42.20;25.25;;;2.20;53.60;;;;;;5025233;28;20144;-74
2022/12/14 05:10:21;;;;;;;39.40;24.88;;;2.20;54.10;;;;;;5013483;28;20515;-74
2022/12/14 05:13:15;;;;;;;39.33;24.92;;;2.20;53.60;;;;;;5025742;28;20116;-75
2022/12/14 05:16:00;;;;;;;40.10;25.63;;;2.20;53.60;;;;;;5026385;28;20056;-75
2022/12/14 05:18:45;;;;;;;43.08;26.83;;;2.20;53.60;;;;;;4996105;28;20041;-75
2022/12/14 05:21:48;;;;;;;40.28;24.38;;;2.20;54.10;;;;;;5023187;28;20041;-75
2022/12/14 05:24:32;;;;;;;41.20;25.50;;;2.20;53.60;;;;;;5024336;28;20523;-75
2022/12/14 05:27:17;;;;;;;40.25;24.30;;;2.20;53.60;;;;;;5026144;28;20095;-75
2022/12/14 05:30:03;;;;;;;39.03;25.15;;;2.20;53.60;;;;;;4999644;28;20503;-76
2022/12/14 05:32:48;;;;;;;36.53;23.27;;;2.20;53.60;;;;;;4999319;28;20032;-75
2022/12/14 05:35:32;;;;;;;41.00;25.35;;;2.20;53.60;;;;;;5024943;28;20052;-75
2022/12/14 05:38:18;;;;;;;38.78;24.48;;;2.20;53.60;;;;;;5002891;28;20040;-75
2022/12/14 05:41:02;;;;;;;43.35;25.52;;;2.20;53.60;;;;;;5012676;28;20204;-75
2022/12/14 05:43:47;;;;;;;40.80;25.15;;;2.30;53.80;;;;;;5014837;28;20100;-74
2022/12/14 05:46:31;;;;;;;40.13;25.48;;;2.20;53.60;;;;;;5025637;28;20198;-74
2022/12/14 05:49:16;;;;;;;39.22;25.13;;;2.30;53.80;;;;;;5018720;28;20524;-75
2022/12/14 05:52:01;;;;;;;39.33;24.58;;;2.30;53.80;;;;;;5016240;28;20578;-75
2022/12/14 05:54:46;;;;;;;38.00;23.05;;;2.30;53.80;;;;;;5023478;28;20048;-75
2022/12/14 05:57:30;;;;;;;41.25;24.48;;;2.30;53.80;;;;;;5010001;28;20103;-75
2022/12/14 06:00:15;;;;;;;42.00;26.55;;;2.30;53.80;;;;;;5022407;28;20048;-75
2022/12/14 06:03:00;;;;;;;40.97;25.48;;;2.30;53.80;;;;;;5019375;28;20099;-75
2022/12/14 06:05:44;;;;;;;39.97;25.33;;;2.30;53.70;;;;;;5024036;28;20123;-75
2022/12/14 06:08:37;;;;;;;38.67;24.02;;;2.30;53.70;;;;;;5018338;28;20511;-74
2022/12/14 06:11:23;;;;;;;41.55;25.52;;;2.30;53.70;;;;;;5023057;28;20102;-75
2022/12/14 06:14:08;;;;;;;40.25;25.30;;;2.30;53.80;;;;;;5024161;28;20045;-75
2022/12/14 06:16:53;;;;;;;42.35;25.98;;;2.30;53.70;;;;;;5020109;28;20468;-75
2022/12/14 06:19:37;;;;;;;41.65;25.33;;;2.40;53.90;;;;;;5024770;28;20125;-75
2022/12/14 06:22:22;;;;;;;40.83;23.98;;;2.40;53.90;;;;;;5024863;28;20052;-75
2022/12/14 06:25:07;;;;;;;41.90;25.35;;;2.40;53.90;;;;;;5021224;28;20471;-74
2022/12/14 06:27:53;;;;;;;39.40;24.25;;;2.40;53.90;;;;;;5022482;28;20160;-74
2022/12/14 06:30:38;;;;;;;35.88;22.83;;;2.40;53.90;;;;;;5017629;28;20415;-74
2022/12/14 06:33:23;;;;;;;42.65;25.73;;;2.40;53.90;;;;;;5017025;28;20044;-74
2022/12/14 06:36:20;;;;;;;38.70;24.30;;;2.40;53.90;;;;;;5013871;28;20079;-75
2022/12/14 06:39:07;;;;;;;39.42;23.40;;;2.40;53.90;;;;;;5018530;28;20072;-74
2022/12/14 06:41:51;;;;;;;41.97;24.92;;;2.40;53.90;;;;;;5025062;28;20035;-75
2022/12/14 06:44:36;;;;;;;38.95;24.58;;;2.40;53.90;;;;;;5021399;28;20504;-74
2022/12/14 06:47:20;;;;;;;39.83;24.02;;;2.40;53.90;;;;;;5002436;28;20064;-74
2022/12/14 06:50:05;;;;;;;42.95;25.30;;;2.40;53.90;;;;;;4995243;28;20091;-74
2022/12/14 06:52:56;;;;;;;35.60;22.75;;;2.40;53.90;;;;;;5013362;28;20040;-73
2022/12/14 06:55:40;;;;;;;34.08;22.95;;;2.40;53.90;;;;;;5020908;28;20052;-76
2022/12/14 06:58:25;;;;;;;37.70;23.30;;;2.40;53.90;;;;;;5015099;28;20536;-78
2022/12/14 07:01:12;;;;;;;39.90;24.05;;;2.40;53.90;;;;;;5013336;28;20177;-78
2022/12/14 07:03:58;;;;;;;36.38;21.90;;;2.50;54.10;;;;;;5008950;28;20104;-76
2022/12/14 07:06:43;;;;;;;37.58;21.58;;;2.50;54.00;;;;;;5008425;28;20095;-78
2022/12/14 07:09:27;;;;;;;35.92;22.40;;;2.50;54.10;;;;;;5024551;28;20083;-75
2022/12/14 07:12:12;;;;;;;33.33;20.70;;;2.50;54.20;;;;;;5012867;28;20067;-78
2022/12/14 07:14:57;;;;;;;37.97;23.20;;;2.50;54.30;;;;;;5003681;28;20087;-76
2022/12/14 07:17:41;;;;;;;35.70;20.58;;;2.60;54.50;;;;;;5016741;28;20548;-77
2022/12/14 07:20:26;;;;;;;34.97;21.55;;;2.60;54.40;;;;;;4999129;28;20032;-75
2022/12/14 07:23:10;;;;;;;33.05;20.58;;;2.70;54.60;;;;;;5008596;28;20091;-74
2022/12/14 07:26:03;;;;;;;35.97;21.50;;;2.70;54.60;;;;;;5012664;28;20053;-74
2022/12/14 07:28:48;;;;;;;34.67;22.17;;;2.60;54.50;;;;;;5013233;28;20087;-74
2022/12/14 07:31:33;;;;;;;35.58;21.38;;;2.70;55.20;;;;;;4995784;28;20460;-74
2022/12/14 07:34:18;;;;;;;34.95;21.38;;;2.60;55.10;;;;;;5011154;28;20123;-74
2022/12/14 07:37:02;;;;;;;36.20;21.60;;;2.60;54.50;;;;;;5020521;28;20044;-75
2022/12/14 07:39:47;;;;;;;34.42;20.60;;;2.60;54.60;;;;;;5020012;28;20042;-75
2022/12/14 07:42:31;;;;;;;32.80;20.42;;;2.60;54.60;;;;;;5023439;28;20060;-74
2022/12/14 07:45:17;;;;;;;32.83;20.00;;;2.60;54.60;;;;;;5014070;28;20508;-75
2022/12/14 07:48:02;;;;;;;36.90;21.50;;;2.60;54.70;;;;;;5002571;28;20055;-78
2022/12/14 07:50:46;;;;;;;33.03;19.77;;;2.60;54.70;;;;;;5014826;28;20036;-77
2022/12/14 07:53:32;;;;;;;34.33;20.85;;;2.60;54.70;;;;;;5023096;28;20583;-77
2022/12/14 07:56:20;;;;;;;35.00;21.30;;;2.60;54.70;;;;;;5020542;28;20100;-75
2022/12/14 07:59:07;;;;;;;31.10;20.10;;;2.60;54.70;;;;;;5019854;28;20064;-74
2022/12/14 08:01:52;;;;;;;34.63;21.52;;;2.50;54.50;;;;;;5022339;28;20100;-74
2022/12/14 08:04:36;;;;;;;37.67;22.33;;;2.60;54.70;;;;;;5018746;28;20037;-75
2022/12/14 08:07:21;;;;;;;39.17;21.67;;;2.50;54.50;;;;;;5011889;28;20405;-79
2022/12/14 08:10:06;;;;;;;39.47;23.02;;;2.60;54.70;;;;;;5021625;28;20448;-77
2022/12/14 08:12:51;;;;;;;39.28;22.95;;;2.60;54.70;;;;;;5016252;28;20048;-76
2022/12/14 08:15:38;;;;;;;38.67;23.50;;;2.60;54.70;;;;;;5011962;28;20068;-76
2022/12/14 08:18:23;;;;;;;39.38;23.92;;;2.50;54.50;;;;;;5014287;28;20056;-75
2022/12/14 08:21:09;;;;;;;42.13;24.15;;;2.60;54.70;;;;;;5010814;28;20088;-77
2022/12/14 08:23:55;;;;;;;46.45;24.63;;;2.60;54.70;;;;;;5021636;28;20539;-74
2022/12/14 08:26:40;;;;;;;44.25;23.75;;;2.60;54.70;;;;;;5021575;28;20845;-75
2022/12/14 08:29:24;;;;;;;44.20;25.10;;;2.60;55.20;;;;;;5009089;28;20045;-75
2022/12/14 08:32:09;;;;;;;41.67;23.75;;;2.60;54.60;;;;;;4992696;28;20083;-77
2022/12/14 08:34:53;;;;;;;40.58;24.27;;;2.60;54.60;;;;;;5007005;28;20037;-78
2022/12/14 08:37:38;;;;;;;42.17;26.48;;;2.60;54.60;;;;;;5005997;28;20083;-77
2022/12/14 08:40:22;;;;;;;46.15;25.83;;;2.60;54.60;;;;;;5005758;28;20060;-77
2022/12/14 08:43:08;;;;;;;42.70;25.23;;;2.60;54.50;;;;;;4981592;28;20127;-76
2022/12/14 08:45:54;;;;;;;41.33;24.58;;;2.60;54.50;;;;;;5007542;28;20608;-78
2022/12/14 08:48:38;;;;;;;43.85;25.15;;;2.60;54.50;;;;;;5007661;28;20447;-75
2022/12/14 08:51:24;;;;;;;41.90;25.08;;;2.60;54.50;;;;;;4983455;28;20040;-75
2022/12/14 08:54:08;;;;;;;43.83;25.27;;;2.60;54.50;;;;;;5020313;28;20103;-79
2022/12/14 08:56:53;;;;;;;40.47;24.23;;;2.60;54.50;;;;;;5005981;28;20044;-76
2022/12/14 08:59:38;;;;;;;42.80;25.52;;;2.60;54.40;;;;;;5000221;28;20111;-77
2022/12/14 09:02:23;;;;;;;38.97;24.50;;;2.70;54.60;;;;;;5005477;28;20079;-77
2022/12/14 09:05:08;;;;;;;41.95;25.55;;;2.70;54.60;;;;;;5021355;28;20665;-75
2022/12/14 09:07:53;;;;;;;42.13;23.13;;;2.70;54.60;;;;;;5013908;28;20041;-75
2022/12/14 09:10:38;;;;;;;41.50;23.60;;;2.70;54.50;;;;;;5020738;28;20087;-74
2022/12/14 09:13:22;;;;;;;40.50;23.90;;;2.70;54.50;;;;;;5019818;28;20061;-75
2022/12/14 09:16:11;;;;;;;38.75;23.52;;;2.70;54.40;;;;;;5021333;28;20117;-76
2022/12/14 09:18:56;;;;;;;43.92;24.08;;;2.80;54.50;;;;;;5012154;28;20401;-76
2022/12/14 09:21:40;;;;;;;37.15;22.77;;;2.80;54.50;;;;;;5021885;28;20043;-75
2022/12/14 09:24:25;;;;;;;38.88;23.67;;;2.80;54.40;;;;;;5020745;28;20508;-74
2022/12/14 09:27:10;;;;;;;40.55;23.08;;;2.90;54.60;;;;;;5007545;28;20047;-75
2022/12/14 09:29:54;;;;;;;37.97;22.85;;;2.80;54.30;;;;;;5022730;28;20048;-76
2022/12/14 09:32:39;;;;;;;40.85;23.70;;;2.90;54.40;;;;;;5025452;28;20429;-76
2022/12/14 09:35:23;;;;;;;37.67;22.42;;;2.90;54.40;;;;;;5024994;28;20535;-76
2022/12/14 09:38:08;;;;;;;39.45;23.27;;;3.00;54.40;;;;;;5011197;28;20064;-76
2022/12/14 09:40:56;;;;;;;39.35;22.60;;;2.90;54.20;;;;;;5011609;28;20401;-74
2022/12/14 09:43:44;;;;;;;37.63;22.33;;;3.00;54.30;;;;;;5018359;28;20092;-76
2022/12/14 09:46:43;;;;;;;35.10;21.92;;;3.10;54.40;;;;;;5010553;28;20092;-78
2022/12/14 09:49:35;;;;;;;36.40;22.52;;;3.10;54.30;;;;;;5015275;28;20129;-77
2022/12/14 09:52:41;;;;;;;37.88;20.83;;;3.20;54.40;;;;;;5025167;28;20064;-76
2022/12/14 09:55:31;;;;;;;34.05;20.98;;;3.20;54.80;;;;;;5022593;28;20056;-76
2022/12/14 09:58:23;;;;;;;35.95;22.65;;;3.20;54.10;;;;;;5016755;28;20422;-76
2022/12/14 10:01:22;;;;;;;34.58;20.40;;;3.30;54.20;;;;;;5025508;28;20195;-77
2022/12/14 10:04:35;;;;;;;34.50;20.38;;;3.30;54.10;;;;;;5023968;28;20346;-77
2022/12/14 10:07:40;;;;;;;35.15;21.13;;;3.40;54.10;;;;;;5025607;28;20053;-76
2022/12/14 10:10:32;;;;;;;35.47;21.20;;;3.40;54.00;;;;;;5023814;28;20092;-77
2022/12/14 10:14:01;;;;;;;32.97;20.70;;;3.40;53.90;;;;;;5023549;28;20127;-76
2022/12/14 10:16:53;;;;;;;33.15;21.35;;;3.50;53.90;;;;;;5021240;28;20088;-75
2022/12/14 10:19:47;;;;;;;35.13;20.75;;;3.50;53.80;;;;;;5020260;28;20071;-76
2022/12/14 10:22:36;;;;;;;33.28;19.83;;;3.50;53.80;;;;;;5016460;28;20056;-77
2022/12/14 10:25:27;;;;;;;33.67;19.83;;;3.60;53.90;;;;;;5024732;28;20087;-77
2022/12/14 10:28:20;;;;;;;32.60;21.02;;;3.60;53.80;;;;;;5014631;28;20095;-76
2022/12/14 10:31:10;;;;;;;34.60;20.70;;;3.70;54.00;;;;;;5020607;28;20657;-76
2022/12/14 10:33:58;;;;;;;33.35;20.95;;;3.70;53.80;;;;;;5010276;28;20448;-78
2022/12/14 10:37:02;;;;;;;35.80;21.90;;;3.70;53.70;;;;;;5011140;28;20108;-78
2022/12/14 10:40:09;;;;;;;35.10;20.92;;;3.70;53.60;;;;;;5010384;28;20040;-78
2022/12/14 10:43:06;;;;;;;34.97;21.48;;;3.80;53.70;;;;;;5018163;28;20416;-79
2022/12/14 10:46:06;;;;;;;34.17;21.60;;;3.80;53.70;;;;;;5022215;28;20048;-78
2022/12/14 10:49:15;;;;;;;34.25;21.73;;;3.80;53.60;;;;;;5015580;28;20129;-79
2022/12/14 10:52:06;;;;;;;34.88;21.23;;;3.80;53.50;;;;;;5018647;28;20024;-79
2022/12/14 10:54:59;;;;;;;37.13;22.45;;;3.80;53.50;;;;;;5019214;28;20544;-81
2022/12/14 10:57:44;;;;;;;36.80;23.95;;;3.80;53.50;;;;;;5005959;28;20087;-80
2022/12/14 11:00:28;;;;;;;36.17;23.42;;;3.80;53.50;;;;;;5005338;28;20436;-80
2022/12/14 11:03:14;;;;;;;37.47;21.88;;;3.80;53.50;;;;;;5016625;28;20060;-79
2022/12/14 11:06:12;;;;;;;36.95;23.67;;;3.80;53.40;;;;;;5004181;28;20528;-79
2022/12/14 11:08:57;;;;;;;39.63;22.92;;;3.80;53.40;;;;;;5033151;28;20068;-79
2022/12/14 11:11:43;;;;;;;38.03;22.23;;;3.80;53.30;;;;;;5033763;28;20126;-78
2022/12/14 11:14:28;;;;;;;36.50;22.20;;;3.80;53.30;;;;;;5030988;28;20044;-78
2022/12/14 11:17:40;;;;;;;36.63;22.75;;;3.80;53.20;;;;;;5025794;28;20044;-78
2022/12/14 11:20:24;;;;;;;37.08;22.02;;;3.80;53.10;;;;;;5025439;28;20041;-78
2022/12/14 11:23:25;;;;;;;35.95;21.40;;;3.80;53.10;;;;;;5038343;28;20045;-77
2022/12/14 11:26:15;;;;;;;39.83;22.20;;;3.80;53.10;;;;;;5017707;28;20084;-78
2022/12/14 11:29:03;;;;;;;39.88;23.77;;;3.80;53.10;;;;;;5029490;28;20060;-77
2022/12/14 11:31:51;;;;;;;32.90;20.08;;;3.80;53.00;;;;;;5033405;28;20071;-77
2022/12/14 11:34:38;;;;;;;35.38;21.42;;;3.90;53.10;;;;;;5037325;28;20098;-78
2022/12/14 11:37:25;;;;;;;33.83;21.58;;;3.90;53.00;;;;;;5018260;28;20396;-76
2022/12/14 11:40:22;;;;;;;37.03;20.10;;;3.90;52.80;;;;;;5023845;28;20080;-77
2022/12/14 11:43:34;;;;;;;31.55;19.17;;;4.00;52.90;;;;;;5023205;28;20052;-77
2022/12/14 11:46:19;;;;;;;30.52;19.05;;;4.00;52.80;;;;;;5023504;28;20056;-76
2022/12/14 11:49:17;;;;;;;32.63;18.80;;;4.10;53.10;;;;;;5018820;28;20455;-77
2022/12/14 11:52:04;;;;;;;27.92;17.10;;;4.20;53.30;;;;;;5018537;28;20055;-78
2022/12/14 11:54:55;;;;;;;27.52;17.83;;;4.30;53.30;;;;;;5019212;28;20142;-78
2022/12/14 11:57:57;;;;;;;28.27;17.02;;;4.40;53.30;;;;;;5012580;28;20401;-78
2022/12/14 12:00:48;;;;;;;27.40;17.13;;;4.50;53.30;;;;;;5021627;28;20095;-78
2022/12/14 12:03:40;;;;;;;30.33;18.30;;;4.50;53.80;;;;;;5018978;28;20067;-75
2022/12/14 12:06:27;;;;;;;26.85;16.77;;;4.50;53.10;;;;;;5023228;28;20123;-78
2022/12/14 12:09:29;;;;;;;31.20;17.88;;;4.50;53.10;;;;;;5016307;28;20040;-76
2022/12/14 12:12:18;;;;;;;30.13;19.35;;;4.60;53.10;;;;;;5012267;28;20111;-76
2022/12/14 12:15:04;;;;;;;30.80;18.33;;;4.60;53.00;;;;;;5018654;28;20810;-76
2022/12/14 12:17:54;;;;;;;28.20;17.52;;;4.60;52.90;;;;;;5013318;28;20044;-75
2022/12/14 12:21:18;;;;;;;27.10;16.38;;;4.70;53.00;;;;;;5022831;28;20308;-75
2022/12/14 12:24:24;;;;;;;26.80;16.48;;;4.70;52.90;;;;;;5015322;28;20579;-76
2022/12/14 12:27:14;;;;;;;30.10;17.60;;;4.80;52.90;;;;;;5023605;28;20044;-80
2022/12/14 12:30:27;;;;;;;24.73;16.33;;;4.80;52.90;;;;;;5014481;28;20048;-79
2022/12/14 12:33:27;;;;;;;30.92;18.25;;;4.90;52.90;;;;;;5027736;28;20044;-81
2022/12/14 12:36:17;;;;;;;25.90;15.70;;;4.90;52.90;;;;;;5017414;28;20060;-78
2022/12/14 12:39:06;;;;;;;24.90;16.73;;;4.90;52.80;;;;;;5019748;28;20322;-77
2022/12/14 12:42:16;;;;;;;22.88;14.88;;;4.90;52.70;;;;;;5020931;28;20068;-79
2022/12/14 12:45:30;;;;;;;25.75;15.10;;;5.00;52.80;;;;;;5020927;28;20099;-78
2022/12/14 12:48:38;;;;;;;25.75;15.63;;;5.00;52.70;;;;;;5000244;28;20100;-77
2022/12/14 12:51:28;;;;;;;23.55;15.18;;;5.00;52.70;;;;;;5015861;28;20127;-77
2022/12/14 12:54:34;;;;;;;24.60;15.73;;;5.00;52.60;;;;;;5022545;28;20044;-75
2022/12/14 12:57:20;;;;;;;24.40;15.05;;;5.00;52.50;;;;;;5022577;28;20044;-74
2022/12/14 13:00:06;;;;;;;28.50;15.90;;;5.00;52.50;;;;;;5008089;28;20329;-75
2022/12/14 13:02:56;;;;;;;28.52;16.80;;;5.00;52.50;;;;;;5021730;28;20060;-75
2022/12/14 13:05:41;;;;;;;22.95;15.55;;;5.00;52.40;;;;;;5026398;28;20048;-75
2022/12/14 13:08:30;;;;;;;24.38;15.68;;;5.00;52.40;;;;;;5023095;28;20045;-74
2022/12/14 13:11:20;;;;;;;26.70;15.63;;;5.00;52.30;;;;;;5014376;28;20452;-74
2022/12/14 13:14:29;;;;;;;25.80;14.63;;;5.00;52.30;;;;;;5024055;28;20114;-75
2022/12/14 13:17:33;;;;;;;25.20;14.43;;;5.10;52.50;;;;;;5024227;28;20064;-75
2022/12/14 13:20:32;;;;;;;25.13;14.80;;;5.10;52.50;;;;;;5026497;28;20049;-75
2022/12/14 13:23:19;;;;;;;25.27;14.68;;;5.10;52.30;;;;;;5026203;28;20041;-75
2022/12/14 13:26:19;;;;;;;21.58;13.35;;;5.20;52.50;;;;;;5018340;28;20057;-75
2022/12/14 13:29:48;;;;;;;23.00;14.43;;;5.20;52.40;;;;;;5013416;28;20551;-74
2022/12/14 13:33:10;;;;;;;22.48;14.00;;;5.20;52.20;;;;;;5011300;28;20413;-78
2022/12/14 13:36:10;;;;;;;21.15;14.20;;;5.30;52.30;;;;;;5017085;28;20040;-78
2022/12/14 13:39:16;;;;;;;23.30;14.00;;;5.30;52.20;;;;;;5003778;28;20496;-80
2022/12/14 13:42:01;;;;;;;22.42;13.75;;;5.30;52.10;;;;;;5005474;28;20056;-77
2022/12/14 13:44:59;;;;;;;22.67;12.98;;;5.40;52.40;;;;;;5020911;28;20060;-78
2022/12/14 13:47:52;;;;;;;22.02;13.65;;;5.50;52.50;;;;;;5004792;28;20135;-77
2022/12/14 13:50:39;;;;;;;21.80;13.40;;;5.50;52.40;;;;;;5025767;28;20045;-78
2022/12/14 13:53:29;;;;;;;19.75;13.38;;;5.60;52.60;;;;;;5012677;28;20171;-78
2022/12/14 13:56:19;;;;;;;23.15;14.70;;;5.60;52.50;;;;;;5024097;28;20416;-76
2022/12/14 13:59:28;;;;;;;20.98;13.30;;;5.60;52.50;;;;;;5018544;28;20124;-79
2022/12/14 14:02:32;;;;;;;20.60;14.13;;;5.60;52.40;;;;;;5025553;28;20114;-81
2022/12/14 14:05:19;;;;;;;21.17;13.90;;;5.50;52.20;;;;;;4999516;28;20128;-79
2022/12/14 14:08:28;;;;;;;22.52;14.45;;;5.50;52.30;;;;;;4998489;28;20044;-79
2022/12/14 14:11:33;;;;;;;20.70;13.02;;;5.50;52.20;;;;;;5004501;28;20045;-78
2022/12/14 14:14:42;;;;;;;21.23;13.93;;;5.50;52.30;;;;;;4989005;28;20108;-79
2022/12/14 14:17:42;;;;;;;23.85;13.93;;;5.40;52.20;;;;;;5014039;28;20127;-82
2022/12/14 14:20:29;;;;;;;21.35;14.18;;;5.30;52.00;;;;;;5012218;28;20134;-82
2022/12/14 14:23:13;;;;;;;22.52;14.20;;;5.30;52.10;;;;;;5025126;28;20048;-82
2022/12/14 14:26:32;;;;;;;21.92;15.50;;;5.30;52.10;;;;;;4982848;28;20092;-81
2022/12/14 14:29:28;;;;;;;21.98;14.02;;;5.30;52.10;;;;;;5012024;28;20330;-80
2022/12/14 14:32:33;;;;;;;21.40;13.35;;;5.20;52.00;;;;;;5013099;28;20052;-82
2022/12/14 14:35:34;;;;;;;19.42;13.48;;;5.20;52.00;;;;;;5026698;28;20087;-80
2022/12/14 14:38:30;;;;;;;20.58;12.98;;;5.10;52.00;;;;;;5021456;28;20508;-81
2022/12/14 14:41:22;;;;;;;22.20;13.63;;;5.10;52.00;;;;;;5016589;28;20099;-77
2022/12/14 14:44:35;;;;;;;22.85;14.32;;;5.10;52.10;;;;;;5023101;28;20103;-79
2022/12/14 14:47:38;;;;;;;24.48;15.18;;;5.00;51.90;;;;;;5013284;28;20061;-84
2022/12/14 14:50:28;;;;;;;22.67;14.88;;;5.00;52.10;;;;;;5023562;28;20076;-82
2022/12/14 14:53:27;;;;;;;22.38;14.60;;;4.90;51.90;;;;;;5024626;28;20243;-79
2022/12/14 14:56:33;;;;;;;24.10;15.15;;;4.90;52.00;;;;;;5023439;28;20148;-80